Time;durP1;ratioP1;P1;durP2;ratioP2;P2;SDS_P1;SDS_P2;PMS_P1;PMS_P2;Temp;Humidity;BMP_temperature;BMP_pressure;BME280_temperature;BME280_humidity;BME280_pressure;Samples;Min_cycle;Max_cycle;Signal;HPM_P1;HPM_P2
2021/12/25 00:00:08;;;;;;;;;46.50;40.00;;;;;9.07;80.88;100142.72;5097684;27;45759;-70
2021/12/25 00:02:35;;;;;;;;;56.75;37.25;;;;;9.09;81.22;100144.41;5097229;27;45483;-70
2021/12/25 00:05:00;;;;;;;;;46.00;34.75;;;;;8.94;81.03;100130.91;5095946;27;45441;-69
2021/12/25 00:07:26;;;;;;;;;47.25;36.75;;;;;9.10;81.18;100155.81;5095636;27;45619;-69
2021/12/25 00:09:51;;;;;;;;;44.75;35.25;;;;;9.05;81.12;100148.06;5111472;27;46437;-69
2021/12/25 00:12:16;;;;;;;;;45.00;37.00;;;;;9.14;80.92;100151.28;5095661;27;45367;-69
2021/12/25 00:14:42;;;;;;;;;46.75;33.00;;;;;8.99;81.16;100127.16;5097671;27;45330;-70
2021/12/25 00:17:07;;;;;;;;;47.00;36.00;;;;;8.81;81.23;100104.97;5094416;27;45544;-70
2021/12/25 00:19:32;;;;;;;;;54.25;42.75;;;;;9.15;80.90;100150.34;5095355;27;46016;-70
2021/12/25 00:21:59;;;;;;;;;43.25;35.50;;;;;9.16;80.78;100149.44;5095397;27;46150;-69
2021/12/25 00:24:25;;;;;;;;;46.00;34.25;;;;;9.15;80.82;100151.22;5095060;27;45466;-69
2021/12/25 00:26:58;;;;;;;;;48.50;37.00;;;;;9.05;80.86;100134.00;5096743;27;45552;-69
2021/12/25 00:29:54;;;;;;;;;40.50;34.00;;;;;9.01;80.88;100117.44;5094853;27;45623;-69
2021/12/25 00:34:48;;;;;;;;;29.75;27.75;;;;;9.17;80.80;100143.25;5095663;27;45500;-69
2021/12/25 00:37:14;;;;;;;;;44.75;33.75;;;;;9.19;80.88;100144.91;5093879;27;45459;-69
2021/12/25 00:39:40;;;;;;;;;36.75;29.25;;;;;9.21;80.90;100136.94;5094862;27;45535;-70
2021/12/25 00:42:06;;;;;;;;;44.50;34.75;;;;;9.23;80.76;100140.38;5096616;27;45773;-70
2021/12/25 00:44:33;;;;;;;;;48.00;33.50;;;;;9.09;80.61;100119.78;5096725;27;45460;-70
2021/12/25 00:46:59;;;;;;;;;44.00;29.75;;;;;9.19;80.83;100131.72;5095068;27;45442;-70
2021/12/25 00:49:25;;;;;;;;;38.75;33.50;;;;;9.25;81.26;100135.88;5094855;27;46263;-70
2021/12/25 00:51:51;;;;;;;;;43.50;34.75;;;;;9.12;81.08;100114.38;5095055;27;45449;-70
2021/12/25 00:54:16;;;;;;;;;42.50;34.25;;;;;9.05;81.16;100103.19;5096290;27;45355;-70
2021/12/25 00:56:42;;;;;;;;;47.50;33.75;;;;;9.28;81.01;100136.63;5076649;27;45764;-70
2021/12/25 00:59:09;;;;;;;;;38.50;32.00;;;;;9.30;81.03;100136.59;5094756;27;45335;-70
2021/12/25 01:01:36;;;;;;;;;41.25;35.00;;;;;9.19;81.32;100117.66;5094677;27;45418;-70
2021/12/25 01:04:01;;;;;;;;;42.25;31.50;;;;;9.31;81.22;100133.00;5095026;27;45627;-70
2021/12/25 01:06:27;;;;;;;;;48.00;36.50;;;;;9.30;80.95;100134.78;5076957;27;45506;-70
2021/12/25 01:08:53;;;;;;;;;38.75;34.50;;;;;9.27;81.15;100140.19;5096575;27;45458;-70
2021/12/25 01:11:18;;;;;;;;;49.25;34.00;;;;;9.22;81.25;100121.03;5094502;27;45442;-70
2021/12/25 01:13:51;;;;;;;;;36.75;32.25;;;;;9.19;80.85;100109.72;5094684;27;45165;-70
2021/12/25 01:29:43;;;;;;;;;46.50;34.75;;;;;9.39;81.03;100143.28;5031604;28;45762;-70
2021/12/25 01:49:53;;;;;;;;;45.50;35.25;;;;;9.41;81.00;100130.88;5029085;28;45388;-70
2021/12/25 01:52:25;;;;;;;;;42.75;31.75;;;;;9.36;81.41;100123.13;5029197;28;45564;-70
2021/12/25 01:54:50;;;;;;;;;36.50;33.75;;;;;9.28;80.95;100112.88;5031569;28;45471;-70
2021/12/25 01:57:16;;;;;;;;;42.75;33.25;;;;;9.30;81.45;100115.47;5014401;27;45556;-70
2021/12/25 01:59:41;;;;;;;;;32.25;30.00;;;;;9.31;81.25;100125.94;5077663;27;47158;-70
2021/12/25 02:02:07;;;;;;;;;34.25;28.75;;;;;9.41;81.18;100139.69;5094068;27;45413;-70
2021/12/25 02:04:32;;;;;;;;;38.00;30.25;;;;;9.41;81.37;100144.97;5093928;27;45492;-70
2021/12/25 02:06:58;;;;;;;;;38.00;29.25;;;;;9.34;81.06;100130.25;5075297;27;45612;-70
2021/12/25 02:09:23;;;;;;;;;34.50;30.75;;;;;9.07;80.78;100079.38;5074987;27;48227;-69
2021/12/25 02:11:49;;;;;;;;;35.50;30.00;;;;;9.21;81.19;100100.84;5095940;27;45378;-69
2021/12/25 02:14:14;;;;;;;;;37.25;31.50;;;;;9.32;81.08;100126.81;5092195;27;45401;-69
2021/12/25 02:16:53;;;;;;;;;36.50;31.00;;;;;9.47;80.90;100149.09;5094074;27;45449;-69
2021/12/25 02:19:32;;;;;;;;;36.25;27.25;;;;;9.39;81.28;100141.50;5093440;27;46032;-70
2021/12/25 02:22:01;;;;;;;;;42.50;32.75;;;;;9.32;81.50;100126.81;5093215;27;45521;-69
2021/12/25 02:24:26;;;;;;;;;36.50;28.50;;;;;9.24;81.41;100107.78;5075350;27;45446;-69
2021/12/25 02:26:51;;;;;;;;;30.50;23.25;;;;;9.47;81.08;100154.41;5095738;27;45365;-69
2021/12/25 02:29:17;;;;;;;;;34.25;26.50;;;;;9.23;81.66;100113.97;5093017;27;45233;-69
2021/12/25 02:31:42;;;;;;;;;31.25;27.00;;;;;9.33;81.55;100136.47;5093761;27;45438;-69
2021/12/25 02:34:07;;;;;;;;;26.50;24.00;;;;;9.40;81.16;100142.38;5093631;27;45294;-69
2021/12/25 02:36:33;;;;;;;;;32.75;27.50;;;;;9.32;81.61;100127.69;5093342;27;45386;-69
2021/12/25 02:38:58;;;;;;;;;36.50;29.50;;;;;9.46;81.33;100153.53;5095450;27;45495;-69
2021/12/25 02:41:24;;;;;;;;;26.50;22.50;;;;;9.46;81.49;100144.75;5093081;27;45278;-69
2021/12/25 02:43:49;;;;;;;;;33.75;30.00;;;;;9.48;81.72;100156.13;5093716;27;45551;-69
2021/12/25 02:46:15;;;;;;;;;31.00;27.25;;;;;9.36;81.09;100130.22;5093411;27;45520;-69
2021/12/25 02:48:42;;;;;;;;;30.00;27.00;;;;;9.43;81.59;100139.59;5093152;27;45580;-69
2021/12/25 02:51:10;;;;;;;;;36.50;27.75;;;;;9.50;81.52;100149.88;5094123;27;45385;-69
2021/12/25 02:53:37;;;;;;;;;38.50;32.50;;;;;9.48;81.43;100141.16;5093142;27;45539;-69
2021/12/25 02:56:05;;;;;;;;;36.75;28.00;;;;;9.43;81.37;100135.16;5093108;27;45605;-69
2021/12/25 02:58:30;;;;;;;;;32.50;29.00;;;;;9.43;81.93;100129.03;5092955;27;46727;-69
2021/12/25 03:01:04;;;;;;;;;36.75;26.75;;;;;9.48;81.29;100135.84;5093152;27;45408;-69
2021/12/25 03:03:30;;;;;;;;;35.50;28.00;;;;;9.26;80.94;100109.41;5093625;27;45490;-69
2021/12/25 03:05:55;;;;;;;;;28.00;22.50;;;;;9.48;81.68;100151.72;5094924;27;45758;-69
2021/12/25 03:08:21;;;;;;;;;26.50;23.25;;;;;9.44;81.27;100144.84;5092961;27;45366;-69
2021/12/25 03:10:47;;;;;;;;;28.75;24.25;;;;;9.46;81.56;100148.25;5092805;27;45304;-69
2021/12/25 03:15:47;;;;;;;;;32.00;28.50;;;;;9.48;81.50;100146.44;5093303;27;45618;-69
2021/12/25 03:18:17;;;;;;;;;28.50;26.25;;;;;9.49;81.88;100144.63;5093575;27;45544;-69
2021/12/25 03:20:46;;;;;;;;;30.50;23.75;;;;;9.50;81.39;100143.72;5106020;27;45320;-69
2021/12/25 03:23:14;;;;;;;;;28.75;24.50;;;;;9.34;81.51;100117.03;5104096;27;45516;-69
2021/12/25 03:25:41;;;;;;;;;26.50;24.25;;;;;9.39;81.73;100128.31;5097116;27;45341;-69
2021/12/25 03:28:06;;;;;;;;;22.50;21.25;;;;;9.48;81.36;100143.78;5104008;27;46252;-69
2021/12/25 03:30:36;;;;;;;;;31.25;22.50;;;;;9.47;81.55;100147.34;5088284;27;45270;-69
2021/12/25 03:33:02;;;;;;;;;36.75;30.00;;;;;9.38;81.51;100134.47;5103623;27;45380;-70
2021/12/25 03:35:28;;;;;;;;;30.50;24.25;;;;;9.48;81.72;100150.84;5092789;27;45361;-70
2021/12/25 03:37:53;;;;;;;;;30.25;24.75;;;;;9.41;81.77;100144.97;5091282;27;46635;-70
2021/12/25 03:40:19;;;;;;;;;25.25;22.25;;;;;9.45;81.67;100157.13;5092428;27;45279;-70
2021/12/25 03:42:44;;;;;;;;;34.75;26.00;;;;;9.46;81.82;100164.09;5092659;27;45461;-70
2021/12/25 03:45:09;;;;;;;;;20.00;19.25;;;;;9.41;81.97;100149.34;5094108;27;45308;-70
2021/12/25 03:47:38;;;;;;;;;29.75;25.25;;;;;9.41;81.52;100157.28;5092917;27;46179;-70
2021/12/25 03:58:09;;;;;;;;;25.25;22.75;;;;;9.46;82.02;100168.53;5092509;27;45758;-70
2021/12/25 04:00:36;;;;;;;;;34.75;25.50;;;;;9.47;81.86;100171.13;5075458;27;45412;-69
2021/12/25 04:03:06;;;;;;;;;27.50;23.75;;;;;9.36;81.87;100146.91;5096885;27;45365;-69
2021/12/25 04:05:34;;;;;;;;;29.00;28.00;;;;;9.38;81.95;100152.13;5095131;27;45281;-69
2021/12/25 04:08:11;;;;;;;;;29.25;25.50;;;;;9.45;81.74;100167.69;5095486;27;45478;-69
2021/12/25 04:10:40;;;;;;;;;26.50;22.75;;;;;9.49;81.94;100165.78;5094493;27;45354;-69
2021/12/25 04:13:10;;;;;;;;;29.75;25.25;;;;;9.48;81.94;100164.91;5095853;27;45481;-69
2021/12/25 04:15:36;;;;;;;;;31.75;21.75;;;;;9.42;81.48;100157.22;5061744;27;45517;-69
2021/12/25 04:18:02;;;;;;;;;29.50;25.25;;;;;9.47;81.94;100160.56;5097376;27;45653;-69
2021/12/25 04:20:29;;;;;;;;;30.25;25.25;;;;;9.41;81.85;100149.34;5078623;27;45505;-69
2021/12/25 04:23:00;;;;;;;;;27.00;26.00;;;;;9.41;81.70;100144.97;5077396;27;45469;-69
2021/12/25 04:25:29;;;;;;;;;26.00;22.50;;;;;9.37;81.64;100142.47;5095493;27;45519;-69
2021/12/25 04:27:59;;;;;;;;;31.25;27.25;;;;;9.39;81.77;100146.78;5095361;27;45528;-69
2021/12/25 04:30:35;;;;;;;;;24.50;22.25;;;;;9.41;81.32;100150.25;5095864;27;45422;-69
2021/12/25 05:03:53;;;;;;;;;24.75;21.50;;;;;9.39;81.45;100206.69;5053917;28;45567;-69
2021/12/25 05:05:50;;;;;;;;;27.75;21.75;;;;;9.38;81.59;100205.78;5044856;28;45389;-69
2021/12/25 05:08:16;;;;;;;;;26.25;24.00;;;;;9.20;81.43;100167.72;5053344;28;45464;-69
2021/12/25 05:10:41;;;;;;;;;26.00;24.25;;;;;9.37;81.22;100208.50;5053186;28;45367;-69
2021/12/25 05:13:07;;;;;;;;;27.50;24.75;;;;;9.09;80.89;100154.97;5052718;28;45451;-69
2021/12/25 05:15:32;;;;;;;;;26.50;21.25;;;;;9.32;80.98;100209.56;5053150;28;45407;-69
2021/12/25 05:17:57;;;;;;;;;26.25;21.75;;;;;9.20;81.35;100190.66;5053848;28;45367;-69
2021/12/25 05:20:24;;;;;;;;;25.75;20.00;;;;;9.31;81.06;100212.22;5036251;28;46227;-69
2021/12/25 05:22:49;;;;;;;;;27.25;23.75;;;;;9.30;81.41;100219.31;5053102;28;45499;-69
2021/12/25 05:25:15;;;;;;;;;22.50;19.50;;;;;9.22;81.51;100202.00;5053182;28;45711;-69
2021/12/25 05:27:41;;;;;;;;;26.00;24.00;;;;;9.26;81.12;100207.09;5053133;28;45400;-69
2021/12/25 05:30:07;;;;;;;;;30.00;25.75;;;;;9.19;80.70;100196.84;5052911;28;45836;-69
2021/12/25 05:32:32;;;;;;;;;24.75;21.75;;;;;9.21;80.90;100200.31;5053179;28;45455;-69
2021/12/25 05:34:58;;;;;;;;;26.00;21.50;;;;;9.21;80.66;100202.94;5052857;28;45539;-69
2021/12/25 05:37:23;;;;;;;;;27.25;23.00;;;;;9.29;81.06;100220.22;5052936;28;45809;-69
2021/12/25 05:39:51;;;;;;;;;27.25;23.25;;;;;9.21;81.11;100208.22;5047250;27;47293;-69
2021/12/25 05:42:20;;;;;;;;;27.25;22.75;;;;;9.17;81.23;100209.25;5094629;27;45361;-69
2021/12/25 05:44:46;;;;;;;;;23.25;20.75;;;;;9.29;81.44;100229.91;5094177;27;45449;-69
2021/12/25 05:47:12;;;;;;;;;30.00;24.00;;;;;9.13;80.61;100211.13;5093825;27;45447;-69
2021/12/25 05:49:37;;;;;;;;;30.25;25.25;;;;;9.22;80.52;100226.63;5094448;27;45344;-69
2021/12/25 05:52:03;;;;;;;;;33.75;27.00;;;;;9.14;81.08;100220.75;5093937;27;45287;-69
2021/12/25 05:54:28;;;;;;;;;29.00;24.75;;;;;8.85;81.21;100167.28;5094474;27;45237;-69
2021/12/25 05:56:54;;;;;;;;;22.75;21.00;;;;;9.22;81.46;100231.06;5096675;27;45401;-69
2021/12/25 05:59:19;;;;;;;;;31.50;25.50;;;;;9.09;81.68;100210.41;5093427;27;45375;-69
2021/12/25 06:01:44;;;;;;;;;31.50;24.25;;;;;9.18;81.54;100227.69;5093731;27;45402;-69
2021/12/25 06:04:09;;;;;;;;;15.75;9.00;;;;;9.08;81.24;100216.56;5093862;27;45541;-69
2021/12/25 06:06:35;;;;;;;;;24.50;22.25;;;;;9.05;81.10;100216.69;5092410;27;45399;-69
2021/12/25 06:09:01;;;;;;;;;29.75;24.75;;;;;9.05;81.14;100216.69;5096348;27;45985;-69
2021/12/25 06:11:27;;;;;;;;;34.50;31.75;;;;;9.17;81.06;100233.84;5093495;27;45415;-69
2021/12/25 06:13:58;;;;;;;;;31.50;22.25;;;;;9.18;80.97;100242.66;5093283;27;45366;-69
2021/12/25 06:16:25;;;;;;;;;22.50;21.75;;;;;9.18;80.70;100242.66;5093568;27;49210;-69
2021/12/25 06:18:50;;;;;;;;;27.50;25.25;;;;;9.06;81.23;100236.03;5074498;27;46214;-69
2021/12/25 06:21:15;;;;;;;;;26.25;24.25;;;;;9.05;81.06;100237.81;5093971;27;45405;-69
2021/12/25 06:23:41;;;;;;;;;25.75;22.00;;;;;9.10;81.14;100249.06;5094971;27;45345;-69
2021/12/25 06:26:06;;;;;;;;;27.75;24.50;;;;;9.16;80.84;100262.97;5092858;27;45327;-69
2021/12/25 06:28:32;;;;;;;;;29.25;21.00;;;;;9.15;81.18;100262.09;5093065;27;46104;-70
2021/12/25 06:30:57;;;;;;;;;27.00;22.75;;;;;9.06;80.92;100258.03;5093965;27;45398;-70
2021/12/25 06:33:22;;;;;;;;;25.75;22.50;;;;;9.10;81.27;100267.53;5093710;27;45563;-70
2021/12/25 06:35:48;;;;;;;;;26.50;23.50;;;;;9.14;80.70;100272.72;5095618;27;45390;-70
2021/12/25 06:38:14;;;;;;;;;25.00;21.75;;;;;9.08;81.37;100268.50;5093253;27;45885;-70
2021/12/25 06:40:39;;;;;;;;;24.75;21.00;;;;;9.03;81.13;100260.78;5093244;27;45452;-70
2021/12/25 06:43:04;;;;;;;;;26.00;23.25;;;;;9.14;81.17;100273.56;5093045;27;45429;-70
2021/12/25 06:45:30;;;;;;;;;24.75;19.25;;;;;9.15;81.04;100271.78;5092831;27;45477;-71
2021/12/25 06:47:55;;;;;;;;;22.25;21.00;;;;;9.17;81.44;100277.88;5095598;27;46099;-70
2021/12/25 06:50:21;;;;;;;;;25.25;20.00;;;;;9.17;81.27;100267.31;5090488;27;45668;-70
2021/12/25 06:52:47;;;;;;;;;22.50;21.75;;;;;8.72;80.64;100207.34;5093172;27;45592;-70
2021/12/25 06:55:13;;;;;;;;;20.50;18.00;;;;;9.06;81.02;100254.53;5093173;27;45479;-70
2021/12/25 06:57:47;;;;;;;;;18.25;18.25;;;;;9.09;80.66;100276.38;5092929;27;46153;-70
2021/12/25 07:00:14;;;;;;;;;23.25;18.50;;;;;9.09;80.92;100276.38;5094327;27;45469;-70
2021/12/25 07:02:39;;;;;;;;;29.75;22.00;;;;;9.09;81.10;100275.53;5094553;27;45388;-70
2021/12/25 07:05:05;;;;;;;;;18.75;18.00;;;;;9.05;81.22;100269.47;5093123;27;45460;-70
2021/12/25 07:07:30;;;;;;;;;21.50;19.50;;;;;8.52;80.89;100187.78;5092939;27;45433;-70
2021/12/25 07:09:56;;;;;;;;;25.00;19.75;;;;;9.07;81.30;100283.50;5075279;27;45426;-70
2021/12/25 07:12:24;;;;;;;;;21.00;18.50;;;;;9.00;81.19;100274.06;5092914;27;46058;-70
2021/12/25 07:14:49;;;;;;;;;18.50;16.00;;;;;9.03;81.09;100286.28;5095340;27;45455;-70
2021/12/25 07:17:14;;;;;;;;;18.00;18.00;;;;;9.07;80.74;100298.47;5092901;27;45465;-70
2021/12/25 07:19:40;;;;;;;;;19.25;17.50;;;;;9.03;81.56;100291.56;5092885;27;45298;-70
2021/12/25 07:22:05;;;;;;;;;25.75;20.50;;;;;8.91;81.24;100263.81;5092945;27;45379;-70
2021/12/25 07:24:30;;;;;;;;;24.25;19.00;;;;;9.01;80.83;100294.25;5074822;27;45382;-70
2021/12/25 07:26:56;;;;;;;;;27.00;24.25;;;;;9.02;80.68;100295.97;5094472;27;45293;-70
2021/12/25 07:29:22;;;;;;;;;23.00;20.75;;;;;9.01;80.87;100299.53;5092821;27;45500;-70
2021/12/25 07:31:49;;;;;;;;;19.00;18.25;;;;;8.85;80.71;100279.88;5092801;27;45899;-70
2021/12/25 07:34:14;;;;;;;;;25.25;22.75;;;;;9.00;81.26;100310.13;5092876;27;45298;-70
2021/12/25 07:36:40;;;;;;;;;21.00;20.25;;;;;8.89;81.04;100289.41;5094806;27;47005;-70
2021/12/25 07:39:05;;;;;;;;;28.00;25.00;;;;;8.82;81.17;100290.53;5097989;27;45509;-70
2021/12/25 07:41:31;;;;;;;;;23.25;21.75;;;;;9.01;81.02;100331.22;5096977;27;45423;-70
2021/12/25 07:43:56;;;;;;;;;24.75;21.25;;;;;8.99;80.56;100335.69;5096329;27;45493;-70
2021/12/25 07:46:22;;;;;;;;;28.00;23.50;;;;;8.55;81.08;100263.31;5095895;27;46995;-70
2021/12/25 07:48:48;;;;;;;;;23.25;18.50;;;;;8.92;81.15;100328.03;5094025;27;45373;-70
2021/12/25 07:51:13;;;;;;;;;20.50;19.50;;;;;8.91;81.33;100329.78;5076811;27;45374;-70
2021/12/25 07:53:41;;;;;;;;;21.25;19.00;;;;;8.99;81.06;100348.88;5097743;27;45362;-70
2021/12/25 07:56:06;;;;;;;;;24.50;19.75;;;;;8.97;80.72;100344.56;5095294;27;45429;-70
2021/12/25 07:58:32;;;;;;;;;24.50;17.00;;;;;8.91;80.75;100344.78;5095801;27;45330;-70
2021/12/25 08:00:57;;;;;;;;;21.50;16.25;;;;;8.92;80.39;100350.00;5095935;27;45322;-70
2021/12/25 08:03:23;;;;;;;;;23.00;17.25;;;;;8.86;80.21;100339.66;5096454;27;45339;-70
2021/12/25 08:05:49;;;;;;;;;19.00;16.25;;;;;8.90;80.66;100351.81;5096419;27;45471;-70
2021/12/25 08:08:14;;;;;;;;;19.00;16.50;;;;;8.79;80.68;100335.47;5095725;27;45607;-70
2021/12/25 08:10:42;;;;;;;;;16.00;15.75;;;;;8.81;80.06;100336.31;5095394;27;45523;-70
2021/12/25 08:13:07;;;;;;;;;17.50;15.75;;;;;8.64;80.06;100311.34;5090207;27;45643;-70
2021/12/25 08:15:33;;;;;;;;;15.25;14.50;;;;;8.84;80.56;100358.16;5095798;27;45735;-70
2021/12/25 08:18:03;;;;;;;;;15.50;14.25;;;;;8.77;80.42;100358.44;5097129;27;45417;-70
2021/12/25 08:20:29;;;;;;;;;19.50;16.25;;;;;8.61;80.31;100331.69;5081915;27;45427;-70
2021/12/25 08:22:56;;;;;;;;;14.75;13.25;;;;;8.66;79.73;100350.88;5095159;27;45260;-70
2021/12/25 08:25:21;;;;;;;;;15.25;12.00;;;;;8.70;80.67;100356.91;5095404;27;45464;-70
2021/12/25 08:27:47;;;;;;;;;15.50;14.00;;;;;8.50;79.71;100337.31;5095397;27;46139;-70
2021/12/25 08:30:16;;;;;;;;;15.25;15.25;;;;;8.66;80.25;100373.75;5096693;27;45350;-70
2021/12/25 08:32:43;;;;;;;;;16.50;14.75;;;;;8.61;80.03;100372.09;5097511;27;45373;-70
2021/12/25 08:35:13;;;;;;;;;15.50;14.25;;;;;8.62;79.84;100371.22;5095072;27;48524;-70
2021/12/25 08:37:39;;;;;;;;;18.50;15.50;;;;;8.56;79.66;100362.59;5095285;27;45450;-70
2021/12/25 08:40:07;;;;;;;;;12.00;12.00;;;;;8.53;80.11;100365.34;5095443;27;45321;-70
2021/12/25 08:42:33;;;;;;;;;18.00;15.25;;;;;8.18;79.85;100312.78;5079022;27;45453;-70
2021/12/25 08:47:25;;;;;;;;;15.00;14.50;;;;;8.48;79.62;100372.56;5094064;27;45353;-70
2021/12/25 08:49:50;;;;;;;;;17.50;14.50;;;;;8.39;80.36;100368.44;5095002;27;45362;-70
2021/12/25 08:52:19;;;;;;;;;17.50;17.50;;;;;8.44;80.16;100369.13;5094772;27;45422;-70
2021/12/25 08:54:45;;;;;;;;;17.00;15.75;;;;;8.46;79.65;100380.50;5095136;27;45437;-70
2021/12/25 08:57:11;;;;;;;;;15.25;14.25;;;;;8.43;79.35;100390.28;5096900;27;45342;-70
2021/12/25 08:59:38;;;;;;;;;21.00;18.00;;;;;8.37;79.06;100392.16;5096193;27;45249;-70
2021/12/25 09:02:08;;;;;;;;;14.50;12.50;;;;;8.32;79.22;100394.06;5094902;27;45466;-70
2021/12/25 09:04:36;;;;;;;;;24.25;17.50;;;;;8.26;79.49;100386.34;5094767;27;45546;-70
2021/12/25 09:07:02;;;;;;;;;17.75;16.00;;;;;7.96;79.80;100344.19;5076576;27;45509;-70
2021/12/25 09:09:28;;;;;;;;;11.75;11.50;;;;;8.28;78.99;100394.22;5095108;27;45224;-70
2021/12/25 09:11:53;;;;;;;;;23.25;18.25;;;;;8.12;79.64;100375.38;5097118;27;45300;-70
2021/12/25 09:14:18;;;;;;;;;18.50;16.75;;;;;8.26;80.36;100396.03;5094502;27;45518;-70
2021/12/25 09:16:44;;;;;;;;;22.00;17.75;;;;;8.09;79.59;100360.53;5094563;27;45401;-70
2021/12/25 09:19:09;;;;;;;;;20.50;16.50;;;;;8.28;80.04;100391.59;5076897;27;45438;-70
2021/12/25 09:21:35;;;;;;;;;14.75;14.75;;;;;8.21;79.37;100383.00;5093360;27;45578;-71
2021/12/25 09:24:01;;;;;;;;;17.00;16.00;;;;;8.31;79.75;100405.53;5093705;27;46295;-70
2021/12/25 09:26:26;;;;;;;;;16.75;16.75;;;;;8.11;78.97;100379.78;5094969;27;45455;-70
2021/12/25 09:28:52;;;;;;;;;27.00;21.50;;;;;8.22;78.93;100408.47;5094425;27;45409;-70
2021/12/25 09:31:18;;;;;;;;;18.50;16.75;;;;;8.23;79.73;100414.59;5093102;27;45538;-70
2021/12/25 09:33:44;;;;;;;;;19.25;17.25;;;;;8.20;79.54;100413.75;5094448;27;45534;-70
2021/12/25 09:36:09;;;;;;;;;22.25;20.25;;;;;8.22;79.35;100424.28;5095489;27;45405;-70
2021/12/25 09:38:35;;;;;;;;;16.75;16.75;;;;;8.25;80.27;100420.69;5080394;27;45320;-70
2021/12/25 09:41:03;;;;;;;;;17.00;17.00;;;;;8.26;79.59;100427.69;5094272;27;45430;-70
2021/12/25 09:43:29;;;;;;;;;22.75;17.75;;;;;8.23;79.75;100414.59;5094144;27;46257;-70
2021/12/25 09:45:55;;;;;;;;;17.75;16.50;;;;;8.25;79.84;100426.81;5094576;27;45423;-70
2021/12/25 09:48:21;;;;;;;;;15.25;14.25;;;;;8.22;78.95;100433.97;5094449;27;45659;-70
2021/12/25 09:50:47;;;;;;;;;21.50;19.25;;;;;8.26;78.85;100436.44;5095873;27;45423;-69
2021/12/25 09:53:14;;;;;;;;;27.00;17.75;;;;;8.23;79.09;100439.16;5094231;27;45474;-69
2021/12/25 09:55:40;;;;;;;;;18.00;16.00;;;;;8.07;79.41;100408.91;5093920;27;45402;-69
2021/12/25 09:58:06;;;;;;;;;19.50;17.00;;;;;8.19;78.76;100443.69;5093828;27;45315;-69
2021/12/25 10:00:35;;;;;;;;;26.75;22.75;;;;;8.17;79.06;100442.84;5093155;27;45311;-69
2021/12/25 10:03:00;;;;;;;;;21.75;18.75;;;;;8.11;79.19;100437.75;5096006;27;46193;-69
2021/12/25 10:05:27;;;;;;;;;20.50;18.00;;;;;8.22;79.85;100455.06;5093398;27;45389;-69
2021/12/25 10:08:28;;;;;;;;;23.50;19.25;;;;;8.18;79.04;100451.66;5094300;27;45312;-69
2021/12/25 10:11:00;;;;;;;;;26.25;17.75;;;;;8.15;79.09;100451.75;5047872;28;45407;-70
2021/12/25 10:13:41;;;;;;;;;24.00;19.00;;;;;8.13;78.74;100451.75;5049624;28;46034;-70
2021/12/25 10:16:21;;;;;;;;;27.75;23.75;;;;;8.10;78.53;100456.28;5040868;28;45443;-70
2021/12/25 10:18:47;;;;;;;;;22.00;20.00;;;;;7.93;78.71;100433.88;5050898;28;47076;-70
2021/12/25 10:21:30;;;;;;;;;19.00;17.50;;;;;8.07;78.77;100457.22;5032499;28;45551;-70
2021/12/25 10:24:15;;;;;;;;;17.25;16.75;;;;;8.07;78.82;100457.22;5051889;28;45518;-70
2021/12/25 10:26:44;;;;;;;;;21.50;20.75;;;;;8.07;79.29;100464.25;5038762;28;45494;-70
2021/12/25 10:29:17;;;;;;;;;23.50;15.25;;;;;8.03;78.74;100466.13;5023908;28;45483;-70
2021/12/25 10:31:42;;;;;;;;;20.50;18.00;;;;;7.95;78.51;100458.44;5040998;28;45464;-70
2021/12/25 10:34:34;;;;;;;;;22.00;19.50;;;;;7.95;79.16;100447.03;5040224;28;46151;-70
2021/12/25 10:37:11;;;;;;;;;24.50;23.25;;;;;7.91;78.67;100440.97;5044738;28;45589;-70
2021/12/25 10:39:36;;;;;;;;;22.50;18.25;;;;;8.01;78.33;100460.03;5051995;28;45345;-70
2021/12/25 10:42:10;;;;;;;;;23.75;20.50;;;;;8.02;78.62;100468.78;5036608;28;45457;-70
2021/12/25 10:44:55;;;;;;;;;23.00;19.50;;;;;7.97;79.08;100458.38;5055656;28;45653;-70
2021/12/25 10:47:22;;;;;;;;;21.25;20.25;;;;;8.02;77.93;100467.00;5091902;27;45298;-69
2021/12/25 10:49:56;;;;;;;;;19.50;18.25;;;;;7.97;77.56;100474.19;5090610;27;45446;-69
2021/12/25 10:52:31;;;;;;;;;22.50;19.25;;;;;7.91;78.27;100472.59;5093602;27;45460;-69
2021/12/25 10:55:12;;;;;;;;;23.00;13.00;;;;;7.88;78.71;100474.44;5093150;27;45507;-69
2021/12/25 10:57:42;;;;;;;;;21.50;19.75;;;;;7.73;78.23;100466.06;5076158;27;45720;-69
2021/12/25 11:00:22;;;;;;;;;23.50;21.75;;;;;7.83;78.92;100468.44;5095026;27;45357;-69
2021/12/25 11:03:01;;;;;;;;;16.75;15.00;;;;;7.79;77.84;100467.66;5095061;27;45413;-70
2021/12/25 11:05:36;;;;;;;;;18.25;16.00;;;;;7.81;78.60;100464.97;5092829;27;46331;-70
2021/12/25 11:08:04;;;;;;;;;17.25;16.00;;;;;7.82;79.03;100471.97;5092787;27;45364;-70
2021/12/25 11:10:30;;;;;;;;;21.00;16.75;;;;;7.82;77.79;100471.97;5093228;27;45353;-70
2021/12/25 11:12:56;;;;;;;;;11.75;11.75;;;;;7.68;77.77;100448.66;5096888;27;45440;-70
2021/12/25 11:15:26;;;;;;;;;19.25;15.50;;;;;7.68;77.20;100444.25;5096912;27;45442;-70
2021/12/25 11:17:54;;;;;;;;;15.25;13.00;;;;;7.73;77.85;100449.38;5098342;27;45302;-70
2021/12/25 11:20:34;;;;;;;;;9.00;9.00;;;;;7.66;78.06;100440.78;5095192;27;45509;-69
2021/12/25 11:23:03;;;;;;;;;22.50;22.50;;;;;7.78;78.08;100444.00;5096646;27;45500;-69
2021/12/25 11:25:31;;;;;;;;;20.50;19.50;;;;;7.59;77.81;100428.69;5095847;27;46518;-69
2021/12/25 11:27:58;;;;;;;;;21.50;20.75;;;;;7.62;78.26;100438.28;5096664;27;45487;-69
2021/12/25 11:30:31;;;;;;;;;23.00;18.75;;;;;7.60;78.29;100433.03;5077425;27;45666;-69
2021/12/25 11:32:58;;;;;;;;;20.50;16.50;;;;;7.41;77.36;100395.81;5109657;27;45684;-69
2021/12/25 11:35:24;;;;;;;;;30.00;22.00;;;;;7.65;77.15;100439.06;5096030;27;45520;-69
2021/12/25 11:37:52;;;;;;;;;21.50;17.25;;;;;7.63;77.57;100427.69;5096416;27;45374;-69
2021/12/25 11:40:21;;;;;;;;;23.00;20.00;;;;;7.53;78.00;100415.69;5096181;27;45358;-69
2021/12/25 11:42:49;;;;;;;;;14.75;14.25;;;;;7.75;78.02;100442.31;5096204;27;45580;-69
2021/12/25 11:45:23;;;;;;;;;17.25;17.25;;;;;7.73;78.36;100452.91;5096832;27;45493;-69
2021/12/25 11:47:51;;;;;;;;;16.00;16.00;;;;;7.74;77.50;100454.63;5077794;27;45505;-69
2021/12/25 11:50:24;;;;;;;;;27.75;21.25;;;;;7.71;77.85;100449.44;5107794;27;45426;-69
2021/12/25 11:53:09;;;;;;;;;17.75;16.50;;;;;7.75;77.54;100455.47;5095780;27;45558;-69
2021/12/25 12:00:45;;;;;;;;;20.50;16.25;;;;;7.69;76.58;100448.59;5080647;27;45433;-69
2021/12/25 12:03:38;;;;;;;;;27.50;20.25;;;;;7.66;77.18;100453.94;5097131;27;45610;-69
2021/12/25 12:06:04;;;;;;;;;19.00;16.00;;;;;7.65;77.64;100444.31;5098105;27;46279;-70
2021/12/25 12:08:52;;;;;;;;;19.75;17.25;;;;;7.65;77.94;100439.06;5094429;27;45537;-69
2021/12/25 12:11:28;;;;;;;;;26.00;21.00;;;;;7.68;77.06;100435.50;5096064;27;46038;-69
2021/12/25 12:14:18;;;;;;;;;22.00;17.00;;;;;7.68;77.62;100444.25;5096736;27;45421;-69
2021/12/25 12:16:48;;;;;;;;;17.25;15.00;;;;;7.43;77.16;100408.94;5099305;27;45508;-69
2021/12/25 12:19:33;;;;;;;;;19.50;18.00;;;;;7.67;77.65;100439.00;5108576;27;45395;-69
2021/12/25 12:21:59;;;;;;;;;19.75;19.25;;;;;7.69;77.51;100442.47;5098373;27;45652;-69
2021/12/25 12:27:02;;;;;;;;;19.25;17.25;;;;;7.56;77.17;100422.63;5093645;27;46233;-69
2021/12/25 12:29:41;;;;;;;;;21.00;17.75;;;;;7.67;77.31;100441.63;5095066;27;45485;-69
2021/12/25 12:32:27;;;;;;;;;24.50;21.25;;;;;7.58;77.61;100429.56;5095311;27;45595;-69
2021/12/25 12:34:53;;;;;;;;;25.50;23.75;;;;;7.62;77.59;100441.78;5095099;27;45558;-69
2021/12/25 12:37:19;;;;;;;;;30.00;26.00;;;;;7.66;77.65;100435.50;5075193;27;46981;-69
2021/12/25 12:39:54;;;;;;;;;27.75;27.00;;;;;7.69;77.43;100435.44;5095249;27;46522;-68
2021/12/25 12:42:21;;;;;;;;;21.00;19.00;;;;;7.67;78.08;100424.06;5095358;27;45628;-69
2021/12/25 12:44:53;;;;;;;;;23.00;20.75;;;;;7.50;77.01;100395.56;5096934;27;45733;-69